createdAt,value
2023-04-21T00:01:55.349Z,4.35
2023-04-21T00:04:22.481Z,4.95
2023-04-21T00:06:50.720Z,4.38
2023-04-21T00:09:18.559Z,5.15
2023-04-21T00:11:45.319Z,4.32
2023-04-21T00:14:11.915Z,4.75
2023-04-21T00:16:38.663Z,4.60
2023-04-21T00:19:07.174Z,4.60
2023-04-21T00:21:35.164Z,4.72
2023-04-21T00:24:01.999Z,4.70
2023-04-21T00:26:28.595Z,4.55
2023-04-21T00:28:55.477Z,5.43
2023-04-21T00:31:22.149Z,4.32
2023-04-21T00:33:48.787Z,4.72
2023-04-21T00:36:15.524Z,4.85
2023-04-21T00:38:42.147Z,4.78
2023-04-21T00:41:08.852Z,4.47
2023-04-21T00:43:35.493Z,4.95
2023-04-21T00:46:02.116Z,5.47
2023-04-21T00:48:28.710Z,5.93
2023-04-21T00:50:55.331Z,4.72
2023-04-21T00:53:22.625Z,5.47
2023-04-21T00:55:50.500Z,5.68
2023-04-21T00:58:17.282Z,5.45
2023-04-21T01:00:44.638Z,5.82
2023-04-21T01:03:11.493Z,5.30
2023-04-21T01:05:38.310Z,5.43
2023-04-21T01:08:06.563Z,4.93
2023-04-21T01:10:33.554Z,5.22
2023-04-21T01:13:00.353Z,5.45
2023-04-21T01:15:29.528Z,5.95
2023-04-21T01:17:57.133Z,5.05
2023-04-21T01:20:23.772Z,5.05
2023-04-21T01:22:51.662Z,6.10
2023-04-21T01:25:19.059Z,5.75
2023-04-21T01:27:45.784Z,4.85
2023-04-21T01:30:12.592Z,4.90
2023-04-21T01:32:39.344Z,4.35
2023-04-21T01:35:06.695Z,5.60
2023-04-21T01:37:34.643Z,5.00
2023-04-21T01:40:05.401Z,4.75
2023-04-21T01:42:32.591Z,4.55
2023-04-21T01:44:59.461Z,5.38
2023-04-21T01:47:26.941Z,5.32
2023-04-21T01:49:53.850Z,4.82
2023-04-21T01:52:21.027Z,4.82
2023-04-21T01:54:47.915Z,5.00
2023-04-21T01:57:15.258Z,5.05
2023-04-21T01:59:41.966Z,5.03
2023-04-21T02:02:08.845Z,5.18
2023-04-21T02:04:36.567Z,5.30
2023-04-21T02:07:03.366Z,5.03
2023-04-21T02:09:30.155Z,5.95
2023-04-21T02:12:00.443Z,5.68
2023-04-21T02:14:27.468Z,5.10
2023-04-21T02:16:56.136Z,5.63
2023-04-21T02:19:23.083Z,6.03
2023-04-21T02:21:49.823Z,5.68
2023-04-21T02:24:16.744Z,5.63
2023-04-21T02:26:43.388Z,5.68
2023-04-21T02:29:09.925Z,5.75
2023-04-21T02:31:45.982Z,5.70
2023-04-21T02:34:16.632Z,5.63
2023-04-21T02:36:43.249Z,6.03
2023-04-21T02:39:09.916Z,6.20
2023-04-21T02:41:36.578Z,6.15
2023-04-21T02:44:03.283Z,5.80
2023-04-21T02:46:29.952Z,5.90
2023-04-21T02:48:56.895Z,5.57
2023-04-21T02:51:23.518Z,5.38
2023-04-21T02:53:50.206Z,7.18
2023-04-21T02:56:16.937Z,6.00
2023-04-21T02:58:43.876Z,5.75
2023-04-21T03:01:10.910Z,6.47
2023-04-21T03:03:37.735Z,6.28
2023-04-21T03:06:05.597Z,6.68
2023-04-21T03:08:32.434Z,4.72
2023-04-21T03:10:59.158Z,5.72
2023-04-21T03:13:25.750Z,5.40
2023-04-21T03:15:52.482Z,4.95
2023-04-21T03:18:19.399Z,6.07
2023-04-21T03:20:48.933Z,5.97
2023-04-21T03:23:15.995Z,6.75
2023-04-21T03:25:43.158Z,6.50
2023-04-21T03:28:09.828Z,5.90
2023-04-21T03:30:36.475Z,6.35
2023-04-21T03:33:03.594Z,6.30
2023-04-21T03:35:30.759Z,6.22
2023-04-21T03:37:57.313Z,6.30
2023-04-21T03:40:23.985Z,7.00
2023-04-21T03:42:50.729Z,6.43
2023-04-21T03:45:22.440Z,6.38
2023-04-21T03:47:49.644Z,6.38
2023-04-21T03:50:16.462Z,5.55
2023-04-21T03:52:43.078Z,6.78
2023-04-21T03:55:11.669Z,6.30
2023-04-21T03:57:42.331Z,6.35
2023-04-21T04:00:10.550Z,6.18
2023-04-21T04:02:37.789Z,6.20
2023-04-21T04:05:05.367Z,6.57
2023-04-21T04:07:33.270Z,6.45
2023-04-21T04:09:59.868Z,6.72
2023-04-21T04:12:26.548Z,6.13
2023-04-21T04:14:53.278Z,6.10
2023-04-21T04:17:20.208Z,5.97
2023-04-21T04:19:46.890Z,5.95
2023-04-21T04:22:13.451Z,6.18
2023-04-21T04:24:40.090Z,5.72
2023-04-21T04:27:07.093Z,5.88
2023-04-21T04:29:33.833Z,6.57
2023-04-21T04:32:03.592Z,6.00
2023-04-21T04:34:30.680Z,6.50
2023-04-21T04:36:57.523Z,6.57
2023-04-21T04:39:25.667Z,6.82
2023-04-21T04:41:52.778Z,7.15
2023-04-21T04:44:19.694Z,6.72
2023-04-21T04:46:47.233Z,6.07
2023-04-21T04:49:13.981Z,6.32
2023-04-21T04:51:40.693Z,6.20
2023-04-21T04:54:07.285Z,6.13
2023-04-21T04:56:33.926Z,6.80
2023-04-21T04:59:00.709Z,6.88
2023-04-21T05:01:30.919Z,6.72
2023-04-21T05:03:58.226Z,6.43
2023-04-21T05:06:25.367Z,5.90
2023-04-21T05:08:52.085Z,6.03
2023-04-21T05:11:18.715Z,6.32
2023-04-21T05:13:45.352Z,7.10
2023-04-21T05:16:12.119Z,5.68
2023-04-21T05:18:38.824Z,5.18
2023-04-21T05:21:05.809Z,6.63
2023-04-21T05:23:32.421Z,6.68
2023-04-21T05:26:00.234Z,6.95
2023-04-21T05:28:30.174Z,5.63
2023-04-21T05:30:56.902Z,5.32
2023-04-21T05:33:23.586Z,5.55
2023-04-21T05:35:50.183Z,4.50
2023-04-21T05:38:16.945Z,4.68
2023-04-21T05:40:43.571Z,5.25
2023-04-21T05:43:10.303Z,4.70
2023-04-21T05:45:40.925Z,4.53
2023-04-21T05:48:08.184Z,4.75
2023-04-21T05:50:35.631Z,4.20
2023-04-21T05:53:02.523Z,4.80
2023-04-21T05:55:29.152Z,4.40
2023-04-21T05:57:56.079Z,4.15
2023-04-21T06:00:22.641Z,3.88
2023-04-21T06:02:49.320Z,4.43
2023-04-21T06:05:16.322Z,3.90
2023-04-21T06:07:43.057Z,4.78
2023-04-21T06:10:13.185Z,4.45
2023-04-21T06:12:40.372Z,4.30
2023-04-21T06:15:07.413Z,3.78
2023-04-21T06:17:34.046Z,4.35
2023-04-21T06:20:01.094Z,4.72
2023-04-21T06:22:28.476Z,4.43
2023-04-21T06:24:55.134Z,4.40
2023-04-21T06:27:21.807Z,4.85
2023-04-21T06:29:48.379Z,4.65
2023-04-21T06:32:15.034Z,5.10
2023-04-21T06:34:41.659Z,4.28
2023-04-21T06:37:08.450Z,5.43
2023-04-21T06:39:35.317Z,4.03
2023-04-21T06:42:02.480Z,4.78
2023-04-21T06:44:29.906Z,4.90
2023-04-21T06:46:56.664Z,4.22
2023-04-21T06:49:23.378Z,4.35
2023-04-21T06:51:50.146Z,4.60
2023-04-21T06:54:16.958Z,5.22
2023-04-21T06:56:43.613Z,4.95
2023-04-21T06:59:10.476Z,5.40
2023-04-21T07:01:37.295Z,4.63
2023-04-21T07:04:06.242Z,4.20
2023-04-21T07:06:33.042Z,4.85
2023-04-21T07:09:00.166Z,4.30
2023-04-21T07:11:28.664Z,4.88
2023-04-21T07:13:55.854Z,4.00
2023-04-21T07:16:22.562Z,3.70
2023-04-21T07:18:49.226Z,4.22
2023-04-21T07:21:15.866Z,4.30
2023-04-21T07:23:42.491Z,3.88
2023-04-21T07:26:09.111Z,4.53
2023-04-21T07:28:35.728Z,3.83
2023-04-21T07:31:03.634Z,3.58
2023-04-21T07:33:30.583Z,4.18
2023-04-21T07:35:57.168Z,3.38
2023-04-21T07:38:23.870Z,3.72
2023-04-21T07:40:50.657Z,3.55
2023-04-21T07:43:18.483Z,3.55
2023-04-21T07:45:45.786Z,3.72
2023-04-21T07:48:12.579Z,4.07
2023-04-21T07:50:39.255Z,3.55
2023-04-21T07:53:05.890Z,3.42
2023-04-21T07:55:32.629Z,3.75
2023-04-21T07:57:59.210Z,3.58
2023-04-21T08:00:26.136Z,3.72
2023-04-21T08:02:52.925Z,3.70
2023-04-21T08:05:21.103Z,3.38
2023-04-21T08:07:47.867Z,3.72
2023-04-21T08:10:14.946Z,3.38
2023-04-21T08:12:41.554Z,3.65
2023-04-21T08:15:08.676Z,4.35
2023-04-21T08:17:35.527Z,3.60
2023-04-21T08:20:02.702Z,3.00
2023-04-21T08:22:29.456Z,3.25
2023-04-21T08:24:56.368Z,3.03
2023-04-21T08:27:22.983Z,3.22
2023-04-21T08:29:50.763Z,3.78
2023-04-21T08:32:23.491Z,2.80
2023-04-21T08:34:51.941Z,2.72
2023-04-21T08:37:19.611Z,3.42
2023-04-21T08:39:46.749Z,3.50
2023-04-21T08:42:15.174Z,3.30
2023-04-21T08:44:41.813Z,2.50
2023-04-21T08:47:11.817Z,3.22
2023-04-21T08:49:41.242Z,3.35
2023-04-21T08:52:07.984Z,3.40
2023-04-21T08:54:36.519Z,3.55
2023-04-21T08:57:15.199Z,3.28
2023-04-21T08:59:42.725Z,3.25
2023-04-21T09:02:10.598Z,3.17
2023-04-21T09:04:48.344Z,3.30
2023-04-21T09:07:34.421Z,3.42
2023-04-21T09:10:01.792Z,2.97
2023-04-21T09:12:29.408Z,2.70
2023-04-21T09:14:58.168Z,2.60
2023-04-21T09:17:32.760Z,2.83
2023-04-21T09:20:15.598Z,3.00
2023-04-21T09:22:42.586Z,2.83
2023-04-21T09:25:09.380Z,3.47
2023-04-21T09:27:37.651Z,2.60
2023-04-21T09:30:07.429Z,2.90
2023-04-21T09:32:39.221Z,4.88
2023-04-21T09:35:11.043Z,5.78
2023-04-21T09:37:38.943Z,3.20
2023-04-21T09:40:08.132Z,3.10
2023-04-21T09:42:38.943Z,2.95
2023-04-21T09:45:32.442Z,3.03
2023-04-21T09:48:00.705Z,2.55
2023-04-21T09:50:54.251Z,3.03
2023-04-21T09:53:17.133Z,2.88
2023-04-21T09:55:47.808Z,2.72
2023-04-21T09:58:19.766Z,3.33
2023-04-21T10:00:47.111Z,3.05
2023-04-21T10:03:17.451Z,3.20
2023-04-21T10:05:44.385Z,3.00
2023-04-21T10:08:12.257Z,3.28
2023-04-21T10:10:39.625Z,2.83
2023-04-21T10:13:06.861Z,3.80
2023-04-21T10:15:36.021Z,2.85
2023-04-21T10:18:25.298Z,3.30
2023-04-21T10:20:56.490Z,3.38
2023-04-21T10:23:38.911Z,2.73
2023-04-21T10:26:22.454Z,3.05
2023-04-21T10:29:02.210Z,3.05
2023-04-21T10:31:34.124Z,3.00
2023-04-21T10:34:07.387Z,2.90
2023-04-21T10:36:54.307Z,3.03
2023-04-21T10:39:27.776Z,2.42
2023-04-21T10:42:21.051Z,2.38
2023-04-21T10:44:56.932Z,2.10
2023-04-21T10:47:45.337Z,2.33
2023-04-21T10:50:18.107Z,2.75
2023-04-21T10:52:50.625Z,3.00
2023-04-21T10:55:17.725Z,2.30
2023-04-21T10:57:45.666Z,2.00
2023-04-21T11:00:16.592Z,2.47
2023-04-21T11:02:44.994Z,2.78
2023-04-21T11:05:12.787Z,2.60
2023-04-21T11:07:39.759Z,2.83
2023-04-21T11:10:08.381Z,2.92
2023-04-21T11:12:38.544Z,2.20
2023-04-21T11:15:07.927Z,2.25
2023-04-21T11:17:36.120Z,1.88
2023-04-21T11:20:07.056Z,2.17
2023-04-21T11:22:34.386Z,2.58
2023-04-21T11:25:01.086Z,2.58
2023-04-21T11:27:29.824Z,2.42
2023-04-21T11:29:57.505Z,2.85
2023-04-21T11:32:25.031Z,2.47
2023-04-21T11:34:52.034Z,1.80
2023-04-21T11:37:29.340Z,2.17
2023-04-21T11:40:01.495Z,1.70
2023-04-21T11:42:29.249Z,1.80
2023-04-21T11:44:57.217Z,1.23
2023-04-21T11:47:25.969Z,1.65
2023-04-21T11:49:57.654Z,1.95
2023-04-21T11:52:31.134Z,1.33
2023-04-21T11:54:59.296Z,1.40
2023-04-21T11:57:27.833Z,1.40
2023-04-21T11:59:54.679Z,1.10
2023-04-21T12:02:24.364Z,1.25
2023-04-21T12:05:03.734Z,2.05
2023-04-21T12:07:38.584Z,2.05
2023-04-21T12:10:19.416Z,2.22
2023-04-21T12:12:46.823Z,3.15
2023-04-21T12:15:19.650Z,2.55
2023-04-21T12:17:48.525Z,2.55
2023-04-21T12:20:21.526Z,2.20
2023-04-21T12:22:49.204Z,2.42
2023-04-21T12:25:16.507Z,2.35
2023-04-21T12:27:54.661Z,2.47
2023-04-21T12:30:22.011Z,2.20
2023-04-21T12:32:48.925Z,2.03
2023-04-21T12:35:16.952Z,2.58
2023-04-21T12:37:45.427Z,2.22
2023-04-21T12:40:12.221Z,2.70
2023-04-21T12:42:39.145Z,2.10
2023-04-21T12:45:07.018Z,2.08
2023-04-21T12:47:34.649Z,1.75
2023-04-21T12:50:01.381Z,2.13
2023-04-21T12:52:28.638Z,2.00
2023-04-21T12:54:56.124Z,2.42
2023-04-21T12:57:22.844Z,2.42
2023-04-21T12:59:49.673Z,2.28
2023-04-21T13:02:16.912Z,2.28
2023-04-21T13:04:43.752Z,2.90
2023-04-21T13:07:10.593Z,3.58
2023-04-21T13:09:37.248Z,3.40
2023-04-21T13:12:04.124Z,3.60
2023-04-21T13:14:30.975Z,2.47
2023-04-21T13:16:57.645Z,2.72
2023-04-21T13:19:24.776Z,2.63
2023-04-21T13:21:54.241Z,2.55
2023-04-21T13:24:21.762Z,2.42
2023-04-21T13:26:48.802Z,2.67
2023-04-21T13:29:16.210Z,2.10
2023-04-21T13:31:43.027Z,2.50
2023-04-21T13:34:09.711Z,2.75
2023-04-21T13:36:36.558Z,2.60
2023-04-21T13:39:04.649Z,2.83
2023-04-21T13:41:31.537Z,2.05
2023-04-21T13:43:58.354Z,2.60
2023-04-21T13:46:25.262Z,3.33
2023-04-21T13:48:52.089Z,3.53
2023-04-21T13:51:20.813Z,4.00
2023-04-21T13:53:48.006Z,2.47
2023-04-21T13:56:15.161Z,2.90
2023-04-21T13:58:42.136Z,3.13
2023-04-21T14:01:09.559Z,2.53
2023-04-21T14:03:36.665Z,2.53
2023-04-21T14:06:06.775Z,2.75
2023-04-21T14:08:33.714Z,2.85
2023-04-21T14:11:00.532Z,2.65
2023-04-21T14:13:37.534Z,2.53
2023-04-21T14:16:09.101Z,3.00
2023-04-21T14:18:36.469Z,3.00
2023-04-21T14:21:03.375Z,2.85
2023-04-21T14:23:30.573Z,3.28
2023-04-21T14:26:00.520Z,2.90
2023-04-21T14:28:27.553Z,2.58
2023-04-21T14:30:54.529Z,3.40
2023-04-21T14:33:21.378Z,3.10
2023-04-21T14:35:48.379Z,3.20
2023-04-21T14:38:15.042Z,2.95
2023-04-21T14:40:41.684Z,3.00
2023-04-21T14:43:11.385Z,3.65
2023-04-21T14:45:38.513Z,2.60
2023-04-21T14:48:05.494Z,3.00
2023-04-21T14:50:33.045Z,2.20
2023-04-21T14:52:59.999Z,2.80
2023-04-21T14:55:26.872Z,2.28
2023-04-21T14:57:53.586Z,2.25
2023-04-21T15:00:20.717Z,2.15
2023-04-21T15:02:47.614Z,2.10
2023-04-21T15:05:14.373Z,2.45
2023-04-21T15:07:41.137Z,3.20
2023-04-21T15:10:09.181Z,2.50
2023-04-21T15:12:36.711Z,2.03
2023-04-21T15:15:04.065Z,2.38
2023-04-21T15:17:30.941Z,2.45
2023-04-21T15:19:58.096Z,2.60
2023-04-21T15:22:25.092Z,2.08
2023-04-21T15:24:53.138Z,2.25
2023-04-21T15:27:21.231Z,1.75
2023-04-21T15:29:48.243Z,1.70
2023-04-21T15:32:15.018Z,2.33
2023-04-21T15:34:41.666Z,1.98
2023-04-21T15:37:08.567Z,1.67
2023-04-21T15:39:35.567Z,1.95
2023-04-21T15:42:04.447Z,1.75
2023-04-21T15:44:31.833Z,2.00
2023-04-21T15:46:58.811Z,2.67
2023-04-21T15:49:26.312Z,2.40
2023-04-21T15:51:53.383Z,2.22
2023-04-21T15:54:20.038Z,3.20
2023-04-21T15:56:49.306Z,2.13
2023-04-21T15:59:16.791Z,2.55
2023-04-21T16:01:43.529Z,2.72
2023-04-21T16:04:10.669Z,2.45
2023-04-21T16:06:38.087Z,1.88
2023-04-21T16:09:04.869Z,2.42
2023-04-21T16:11:31.547Z,9.65
2023-04-21T16:13:58.136Z,4.82
2023-04-21T16:16:25.472Z,2.00
2023-04-21T16:18:52.373Z,2.42
2023-04-21T16:21:20.166Z,2.28
2023-04-21T16:23:47.980Z,2.45
2023-04-21T16:26:15.547Z,2.97
2023-04-21T16:28:42.573Z,2.97
2023-04-21T16:31:09.391Z,2.47
2023-04-21T16:33:36.236Z,2.50
2023-04-21T16:36:03.180Z,2.30
2023-04-21T16:38:40.422Z,3.00
2023-04-21T16:41:07.256Z,3.05
2023-04-21T16:43:34.075Z,2.58
2023-04-21T16:46:00.778Z,2.75
2023-04-21T16:48:27.830Z,2.08
2023-04-21T16:50:54.501Z,2.63
2023-04-21T16:53:23.084Z,2.22
2023-04-21T16:55:49.897Z,2.30
2023-04-21T16:58:16.817Z,2.25
2023-04-21T17:00:43.672Z,2.47
2023-04-21T17:03:11.352Z,2.75
2023-04-21T17:05:39.911Z,2.78
2023-04-21T17:08:07.057Z,3.08
2023-04-21T17:10:33.771Z,3.40
2023-04-21T17:13:00.399Z,3.30
2023-04-21T17:15:27.326Z,3.63
2023-04-21T17:17:54.242Z,3.78
2023-04-21T17:20:21.263Z,3.88
2023-04-21T17:22:47.966Z,7.25
2023-04-21T17:25:14.863Z,4.85
2023-04-21T17:27:42.188Z,4.50
2023-04-21T17:30:09.878Z,5.20
2023-04-21T17:32:37.716Z,3.53
2023-04-21T17:35:05.864Z,6.07
2023-04-21T17:37:33.869Z,5.05
2023-04-21T17:40:02.883Z,7.10
2023-04-21T17:42:30.335Z,5.43
2023-04-21T17:44:57.066Z,4.80
2023-04-21T17:47:24.464Z,4.43
2023-04-21T17:49:51.362Z,4.47
2023-04-21T17:52:18.257Z,4.18
2023-04-21T17:54:45.965Z,5.10
2023-04-21T17:57:12.785Z,3.67
2023-04-21T17:59:39.745Z,4.45
2023-04-21T18:02:07.490Z,5.38
2023-04-21T18:04:34.726Z,4.90
2023-04-21T18:07:02.319Z,3.90
2023-04-21T18:09:29.376Z,3.85
2023-04-21T18:11:57.053Z,3.60
2023-04-21T18:14:24.749Z,3.80
2023-04-21T18:16:51.730Z,3.58
2023-04-21T18:19:18.690Z,3.20
2023-04-21T18:21:45.982Z,3.67
2023-04-21T18:24:12.748Z,2.80
2023-04-21T18:26:45.727Z,3.83
2023-04-21T18:29:12.372Z,3.47
2023-04-21T18:31:39.488Z,4.57
2023-04-21T18:34:06.370Z,5.45
2023-04-21T18:36:33.775Z,7.15
2023-04-21T18:39:01.735Z,7.22
2023-04-21T18:41:28.754Z,7.22
2023-04-21T18:43:55.602Z,7.95
2023-04-21T18:46:22.546Z,6.60
2023-04-21T18:48:49.304Z,7.32
2023-04-21T18:51:16.263Z,7.47
2023-04-21T18:53:43.384Z,8.82
2023-04-21T18:56:10.223Z,8.25
2023-04-21T18:58:37.028Z,11.50
2023-04-21T19:01:03.840Z,15.98
2023-04-21T19:03:31.342Z,16.08
2023-04-21T19:05:58.131Z,13.60
2023-04-21T19:08:38.727Z,9.85
2023-04-21T19:11:10.110Z,9.43
2023-04-21T19:13:36.783Z,10.05
2023-04-21T19:16:05.219Z,12.15
2023-04-21T19:18:32.106Z,9.02
2023-04-21T19:20:58.810Z,9.30
2023-04-21T19:23:25.780Z,7.22
2023-04-21T19:25:55.165Z,9.48
2023-04-21T19:28:21.975Z,8.27
2023-04-21T19:30:49.168Z,6.35
2023-04-21T19:33:16.615Z,5.93
2023-04-21T19:35:43.567Z,7.97
2023-04-21T19:38:11.332Z,8.93
2023-04-21T19:40:38.149Z,9.07
2023-04-21T19:43:05.795Z,9.73
2023-04-21T19:45:32.761Z,7.60
2023-04-21T19:48:00.702Z,8.02
2023-04-21T19:50:27.528Z,7.10
2023-04-21T19:52:54.180Z,7.25
2023-04-21T19:55:20.860Z,6.88
2023-04-21T19:57:47.529Z,6.75
2023-04-21T20:00:14.805Z,6.63
2023-04-21T20:02:42.344Z,5.35
2023-04-21T20:05:09.631Z,5.68
2023-04-21T20:07:37.399Z,4.65
2023-04-21T20:10:08.494Z,5.93
2023-04-21T20:12:35.226Z,5.05
2023-04-21T20:15:02.614Z,6.28
2023-04-21T20:17:29.856Z,5.82
2023-04-21T20:19:56.775Z,5.55
2023-04-21T20:22:23.455Z,5.57
2023-04-21T20:24:52.052Z,5.70
2023-04-21T20:27:18.930Z,5.88
2023-04-21T20:29:46.763Z,6.50
2023-04-21T20:32:14.182Z,6.75
2023-04-21T20:34:40.961Z,7.38
2023-04-21T20:37:07.892Z,7.97
2023-04-21T20:39:34.528Z,8.13
2023-04-21T20:42:12.517Z,8.00
2023-04-21T20:44:42.305Z,8.95
2023-04-21T20:47:10.150Z,9.25
2023-04-21T20:49:37.281Z,9.25
2023-04-21T20:52:04.217Z,8.55
2023-04-21T20:54:31.067Z,7.80
2023-04-21T20:56:57.731Z,7.97
2023-04-21T20:59:24.517Z,7.95
2023-04-21T21:01:51.168Z,8.90
2023-04-21T21:04:18.069Z,9.63
2023-04-21T21:06:44.940Z,9.80
2023-04-21T21:09:11.758Z,11.23
2023-04-21T21:11:38.426Z,8.18
2023-04-21T21:14:05.379Z,10.00
2023-04-21T21:16:32.124Z,7.57
2023-04-21T21:18:59.422Z,8.98
2023-04-21T21:21:26.502Z,8.90
2023-04-21T21:23:53.240Z,9.85
2023-04-21T21:26:20.021Z,8.50
2023-04-21T21:28:46.763Z,10.07
2023-04-21T21:31:13.480Z,9.20
2023-04-21T21:33:40.076Z,9.25
2023-04-21T21:36:06.725Z,8.45
2023-04-21T21:38:33.401Z,8.40
2023-04-21T21:41:00.335Z,8.45
2023-04-21T21:43:27.197Z,8.07
2023-04-21T21:45:57.237Z,8.38
2023-04-21T21:48:23.928Z,8.63
2023-04-21T21:50:50.831Z,8.18
2023-04-21T21:53:17.826Z,8.63
2023-04-21T21:55:44.661Z,8.80
2023-04-21T21:58:11.379Z,8.00
2023-04-21T22:00:39.486Z,7.95
2023-04-21T22:03:06.791Z,7.78
2023-04-21T22:05:33.692Z,7.72
2023-04-21T22:08:00.429Z,7.18
2023-04-21T22:10:27.171Z,8.57
2023-04-21T22:13:06.142Z,7.15
2023-04-21T22:15:34.251Z,7.30
2023-04-21T22:18:02.856Z,6.95
2023-04-21T22:20:30.674Z,7.70
2023-04-21T22:22:57.356Z,7.80
2023-04-21T22:25:27.076Z,7.57
2023-04-21T22:27:57.288Z,7.13
2023-04-21T22:30:24.073Z,8.35
2023-04-21T22:32:50.886Z,9.05
2023-04-21T22:35:17.859Z,8.10
2023-04-21T22:37:44.617Z,8.73
2023-04-21T22:40:12.088Z,7.88
2023-04-21T22:42:38.833Z,9.80
2023-04-21T22:45:05.976Z,9.88
2023-04-21T22:47:33.490Z,9.95
2023-04-21T22:50:00.314Z,10.65
2023-04-21T22:52:27.083Z,10.40
2023-04-21T22:54:54.341Z,11.00
2023-04-21T22:57:25.283Z,9.93
2023-04-21T22:59:52.030Z,9.80
2023-04-21T23:02:18.851Z,9.75
2023-04-21T23:04:45.915Z,11.02
2023-04-21T23:07:12.589Z,9.77
2023-04-21T23:09:39.529Z,8.95
2023-04-21T23:12:06.470Z,9.13
2023-04-21T23:14:33.228Z,8.77
2023-04-21T23:17:00.069Z,9.07
2023-04-21T23:19:26.853Z,9.65
2023-04-21T23:21:53.560Z,9.25
2023-04-21T23:24:20.193Z,9.15
2023-04-21T23:26:46.981Z,8.65
2023-04-21T23:29:13.634Z,8.40
2023-04-21T23:31:40.492Z,8.88
2023-04-21T23:34:07.327Z,8.35
2023-04-21T23:36:33.969Z,8.32
2023-04-21T23:39:01.032Z,8.60
2023-04-21T23:41:27.809Z,8.05
2023-04-21T23:43:54.513Z,8.50
2023-04-21T23:46:21.206Z,8.75
2023-04-21T23:48:47.861Z,8.40
2023-04-21T23:51:15.184Z,8.82
2023-04-21T23:53:42.023Z,8.23
2023-04-21T23:56:08.789Z,8.15
2023-04-21T23:58:35.761Z,8.63
